Kezdőlap
METAR-TAF:

METAR-TAF

Repülőterek :

Sanford Regional Airport

Sanford, Maine, Amerikai Egyesült Államok

földrajzi szélesség: 43-24N, földrajzi hosszúság: 070-43W, magasság: 74 m

Jelenlegi meteorológiai megfigyelések

A jelentés 47 perccel ezelõtt készült, 14:56 UTC
Észak-északnyugati szél 8 kt, nyugat-északnyugati és északi között változik
Hőmérséklet 12°C
Páratartalom 28%
Légköri nyomás 1016 hPa
Látótávolság: 16.1 km
Derült ég

METAR: KSFM 061456Z AUTO 33008KT 290V010 10SM CLR 12/M06 A2999 RMK AO2 SLP158 T01171061 58003

Idő: 11:43 (15:43 UTC)


TAF: hiányzik

Meteorológiai megfigyelések és előrejelzések több, mint 4000 repülőtéren (METAR és TAF jelentéseket).

A térképen piros és sárga pontok jelzik az elérhető meteorológiai állomásokat.

Mozgassa az egeret a pont fölött, hogy megjelenjen az állomás neve.

Azután kattintson az időjárási megfigyelések és előrejelzések megtekintéséhez.

A térkép megváltoztatása: kattintson a fekete keresztel jelölt zöld gombra ráközelítéshez, a vonallal jelölt zöld gombra távolításhoz, vagy a zöld nyilakra a szomszédos térképek eléréséhez.


METAR-TAF: